Bei Facebook empfehlenBei Twitter postenGoogle plusPinterest

Das Wetter im Erzgebirge am 03.05.2015

Wetter und Klima am 03.05.2015 Holzhau im Erzgebirge (630m ü.NN)
Letzte gemessene Temperatur und Uhrzeit der Messung23:45:00 Uhr10.50 °C
Temperatur (Maximum / Höchstwert) und Uhrzeit der Messung14:15:00 Uhr16.90 °C
Temperatur (Minimum / Tiefstwert) und Uhrzeit der Messung03:15:000.50 °C
Errechneter Absolutwert der Temperaturschwankungen zwischen Tmin und Tmax des Tages16.40 K
Errechnete Tagesmitteltemperatur9.42396 °C
Gesamt - Niederschlag des Tages (in flüssiger Form)1.55 Liter / m²
Luftdruck (Maximum / Höchstwert) und Zeitpunkt der Messung00:00:00 Uhr1011.00 hPa
Luftdruck (Minimum / Tiefstwert) und Zeitpunkt der Messung20:30:00 Uhr1005.90 hPa
Errechneter Absolutwert der Luftdruckschwankungen des Tages5.10 hPa
Höchste gemessene Windgeschwindigkeit und Uhrzeit der Messung15:15:00 Uhr15.48 km/h
Errechnete Windhäufigkeit in Relation zu den Messwerten des Tages21.87500 %
Niedrigste Windkühle (Windchill) und Zeitpunkt der Messung01:00:00 Uhr-0.20 °C
Taupunkt (Maximum / Höchstwert) und Uhrzeit der Messung23:30:00 Uhr9.20 °C
Taupunkt (Minimum / Tiefstwert) und Uhrzeit der Messung02:00:00-1.50 °C
Anzahl der automatisch eingelesenen Messwerte 96

Detaillierte Wetter- und Klima- Messwerte für den 03.05.2015 in Holzhau im Erzgebirge (630m ü.NN)
ZeitTemperaturLuftdruckRel. LuftfeuchteWindWindrichtungWindchillTaupunktNiederschlag l/m²
23:45:0010.50 °C1006.00 hPa91.00 %9.10 °C1.55
23:30:0010.60 °C1006.10 hPa91.00 %9.20 °C1.55
23:15:0010.60 °C1006.30 hPa91.00 %9.00 km/hS9.50 °C9.20 °C1.55
23:00:0010.60 °C1006.20 hPa91.00 %12.96 km/hSO8.90 °C9.20 °C1.55
22:45:0010.60 °C1006.30 hPa91.00 %11.16 km/hO9.20 °C9.20 °C1.55
22:30:0010.60 °C1006.20 hPa91.00 %12.24 km/hOSO9.00 °C9.20 °C1.04
22:15:0010.60 °C1006.30 hPa91.00 %2.16 km/hSO10.60 °C9.20 °C1.04
22:00:0010.70 °C1006.30 hPa90.00 %4.68 km/hOSO10.70 °C9.10 °C0.52
21:45:0010.80 °C1006.30 hPa90.00 %6.48 km/hONO10.30 °C9.20 °C0.52
21:30:0010.80 °C1006.30 hPa89.00 %9.10 °C 
21:15:0010.80 °C1006.20 hPa89.00 %9.10 °C 
21:00:0010.80 °C1006.10 hPa88.00 %5.76 km/hSSW10.50 °C8.90 °C 
20:45:0010.90 °C1006.00 hPa88.00 %9.00 °C 
20:30:0011.00 °C1005.90 hPa87.00 %8.90 °C 
20:15:0011.10 °C1006.10 hPa86.00 %8.80 °C 
20:00:0011.10 °C1006.10 hPa86.00 %3.24 km/hSO11.10 °C8.80 °C 
19:45:0011.40 °C1006.10 hPa84.00 %8.80 °C 
19:30:0011.60 °C1006.40 hPa82.00 %8.60 °C 
19:15:0012.20 °C1006.50 hPa80.00 %11.16 km/hSSO11.10 °C8.90 °C 
19:00:0012.70 °C1006.70 hPa78.00 %9.00 °C 
18:45:0013.00 °C1006.40 hPa77.00 %9.10 °C 
18:30:0012.90 °C1006.50 hPa76.00 %8.80 °C 
18:15:0013.00 °C1006.70 hPa75.00 %8.70 °C 
18:00:0013.50 °C1006.70 hPa73.00 %8.80 °C 
17:45:0013.80 °C1006.80 hPa70.00 %8.40 °C 
17:30:0013.60 °C1006.90 hPa70.00 %8.20 °C 
17:15:0013.90 °C1007.10 hPa69.00 %5.76 km/hSO14.00 °C8.30 °C 
17:00:0013.90 °C1007.20 hPa68.00 %8.10 °C 
16:45:0014.30 °C1007.40 hPa66.00 %8.00 °C 
16:30:0015.00 °C1007.50 hPa65.00 %10.80 km/hS14.50 °C8.50 °C 
16:15:0015.10 °C1007.60 hPa64.00 %8.30 °C 
16:00:0015.30 °C1007.70 hPa64.00 %12.24 km/hSW14.70 °C8.50 °C 
15:45:0015.90 °C1007.60 hPa60.00 %8.20 °C 
15:30:0016.50 °C1007.50 hPa59.00 %8.50 °C 
15:15:0016.30 °C1007.40 hPa59.00 %15.48 km/hSO15.60 °C8.30 °C 
15:00:0016.10 °C1007.60 hPa60.00 %8.30 °C 
14:45:0015.60 °C1007.90 hPa58.00 %7.40 °C 
14:30:0015.90 °C1007.90 hPa58.00 %7.70 °C 
14:15:0016.90 °C1008.30 hPa54.00 %7.50 °C 
14:00:0016.40 °C1008.30 hPa56.00 %7.60 °C 
13:45:0015.90 °C1008.20 hPa56.00 %7.10 °C 
13:30:0016.40 °C1008.10 hPa57.00 %10.44 km/hSSW16.20 °C7.90 °C 
13:15:0016.10 °C1008.00 hPa60.00 %6.48 km/hSSW16.40 °C8.30 °C 
13:00:0016.10 °C1008.10 hPa58.00 %7.80 °C 
12:45:0015.80 °C1008.20 hPa59.00 %7.80 °C 
12:30:0015.90 °C1008.20 hPa61.00 %8.40 °C 
12:15:0015.00 °C1008.40 hPa61.00 %7.50 °C 
12:00:0015.60 °C1008.60 hPa59.00 %7.60 °C 
11:45:0015.10 °C1008.80 hPa60.00 %7.40 °C 
11:30:0014.50 °C1008.60 hPa59.00 %3.96 km/hSO14.50 °C6.60 °C 
11:15:0014.30 °C1008.90 hPa60.00 %6.60 °C 
11:00:0013.80 °C1008.90 hPa61.00 %6.40 °C 
10:45:0013.00 °C1008.70 hPa61.00 %5.70 °C 
10:30:0012.40 °C1009.00 hPa61.00 %5.10 °C 
10:15:0012.40 °C1008.90 hPa62.00 %5.30 °C 
10:00:0012.50 °C1009.00 hPa62.00 %5.40 °C 
09:45:0012.40 °C1009.10 hPa64.00 %5.80 °C 
09:30:0012.20 °C1009.10 hPa64.00 %1.08 km/hSSO12.20 °C5.60 °C 
09:15:0011.80 °C1009.00 hPa67.00 %5.90 °C 
09:00:0011.90 °C1009.00 hPa66.00 %5.80 °C 
08:45:0011.40 °C1008.90 hPa68.00 %5.70 °C 
08:30:0011.20 °C1009.00 hPa70.00 %5.90 °C 
08:15:0010.80 °C1009.00 hPa72.00 %6.12 km/hS10.40 °C6.00 °C 
08:00:0010.10 °C1009.00 hPa75.00 %5.04 km/hSSO9.90 °C5.90 °C 
07:45:009.00 °C1009.00 hPa77.00 %5.20 °C 
07:30:007.60 °C1009.00 hPa81.00 %4.60 °C 
07:15:005.60 °C1009.10 hPa86.00 %3.40 °C 
07:00:004.40 °C1009.00 hPa87.00 %2.40 °C 
06:45:003.30 °C1008.90 hPa88.00 %1.50 °C 
06:30:002.30 °C1008.90 hPa88.00 %0.50 °C 
06:15:001.20 °C1008.90 hPa87.00 %-0.70 °C 
06:00:000.90 °C1009.00 hPa87.00 %-1.00 °C 
05:45:000.90 °C1009.00 hPa87.00 %-1.00 °C 
05:30:001.10 °C1009.30 hPa87.00 %-0.80 °C 
05:15:001.40 °C1009.40 hPa86.00 %-0.70 °C 
05:00:001.40 °C1009.20 hPa86.00 %-0.70 °C 
04:45:001.40 °C1009.60 hPa86.00 %-0.70 °C 
04:30:001.50 °C1009.70 hPa87.00 %-0.40 °C 
04:15:001.60 °C1009.60 hPa87.00 %-0.30 °C 
04:00:001.60 °C1009.60 hPa88.00 %-0.20 °C 
03:45:001.10 °C1009.60 hPa88.00 %-0.70 °C 
03:30:000.60 °C1009.80 hPa87.00 %-1.30 °C 
03:15:000.50 °C1009.90 hPa87.00 %-1.40 °C 
03:00:000.80 °C1010.10 hPa87.00 %-1.10 °C 
02:45:000.60 °C1010.00 hPa87.00 %-1.30 °C 
02:30:000.70 °C1010.00 hPa87.00 %-1.20 °C 
02:15:000.80 °C1010.10 hPa86.00 %-1.30 °C 
02:00:000.60 °C1010.20 hPa86.00 %-1.50 °C 
01:45:000.70 °C1010.50 hPa86.00 %-1.40 °C 
01:30:000.90 °C1010.60 hPa85.00 %-1.30 °C 
01:15:001.20 °C1010.70 hPa85.00 %-1.00 °C 
01:00:001.40 °C1010.70 hPa85.00 %5.40 km/hOSO-0.20 °C-0.80 °C 
00:45:001.40 °C1010.70 hPa86.00 %-0.70 °C 
00:30:001.40 °C1010.80 hPa85.00 %-0.80 °C 
00:15:001.50 °C1010.90 hPa85.00 %-0.70 °C 
00:00:001.80 °C1011.00 hPa84.00 %-0.60 °C 

Permanenter Link zu dieser Seite: Wetter im Erzgebirge am 03.05.2015
Performance-Info: Die Erstellung der Seite / Statistik(en) / Tabelle(n) erforderte 5 Datenbankserver-Abfrage(n) und dauerte 69 Millisekunden. (Dieser Messwert ist von der Gesamt-Auslastung des Servers abhängig.)
Erzgebirge - Wetter | Erzgebirge - Wetter (Mobilgeräte) | Komplette Klimadatenbank